Aeroporto :
LOGIN :

Iscrizione | Disclaimer

   EN    FR    IT 

 










Sommario :    VFR   VFR Marginale   IFR   IFR Intensivo   IFR Molto Intensivo
Visibilità : 
Base nubi : 
>= 8 km
>= 3000ft
5 / 8 km
1000 / 3000 ft
1500m / 5 km
500 / 1000 ft
800 / 1500m
200 / 500 ft
< 800m
< 200 ft
Simboli :   Temporali  Nebbia  Neve Forte  Precipitazioni Forti  Vento > 20 kt
SIGMETs :   Varie  Temporali  Ghiacco  Turbolenza  Onda orograficha  Ceneri Vulcaniche






- Altitudine del aeroporto : 791 ft
- Codice IATA : KRK


EPKK - Krakow-Balice

ULTIMO METAR :
  • 030030Z 22003KT 9999 FEW060 08/06 Q1007

METARs OBSOLETI :
  • 030000Z 21005KT 9999 FEW062 09/07 Q1007
  • 022330Z VRB02KT 9999 FEW064 09/07 Q1008
  • 022300Z 22004KT 9999 SCT066 10/07 Q1008
  • 022230Z 07002KT 9999 SCT065 10/07 Q1008
  • 022200Z VRB01KT 9999 SCT064 10/07 Q1008

TAF TAF EPKK
Valido dal 03 a 00 ore il 04 a 00 ore UTC


022330Z 0300/0324 VRB02KT 9999 SCT050
TEMPO 0302/0304 3000 BR
BECMG 0306/0309 34010KT
TEMPO 0310/0319 SHRA BKN030CB
BECMG 0317/0319 VRB02KT



MetMap, La meteo Aeronautica in un colpo d'occhio ! - Copyright ORBIFLY Dicembre 2007 - Disclaimer

ORBIFLY MET'MAP TEAM :

Programmazione e sviluppo : Alexandra Zaïnal
Concezione : Baudouin d'Aumeries
Aiuto per la programmazione : Marc-Olivier Méhu
Supporto tecnico e logistico : Manuel Goepfert
Aiuto per la traduzione : Arnaldo La Scala

Contatto : metmap@orbifly.com




FONTI E CREDITI :

   NOAA